sensor_id;sensor_type;location;lat;lon;timestamp;P1;durP1;ratioP1;P2;durP2;ratioP2
13999;SDS011;7075;53.574;10.054;2022-11-20T00:01:14;38.88;;;36.78;;
13999;SDS011;7075;53.574;10.054;2022-11-20T00:03:44;40.70;;;38.42;;
13999;SDS011;7075;53.574;10.054;2022-11-20T00:06:12;39.55;;;37.47;;
13999;SDS011;7075;53.574;10.054;2022-11-20T00:08:40;42.70;;;40.30;;
13999;SDS011;7075;53.574;10.054;2022-11-20T00:11:09;42.28;;;39.67;;
13999;SDS011;7075;53.574;10.054;2022-11-20T00:13:37;39.20;;;37.10;;
13999;SDS011;7075;53.574;10.054;2022-11-20T00:16:04;40.92;;;38.75;;
13999;SDS011;7075;53.574;10.054;2022-11-20T00:18:35;40.13;;;37.97;;
13999;SDS011;7075;53.574;10.054;2022-11-20T00:21:11;39.88;;;37.75;;
13999;SDS011;7075;53.574;10.054;2022-11-20T00:23:38;35.60;;;33.67;;
13999;SDS011;7075;53.574;10.054;2022-11-20T00:26:05;38.72;;;36.72;;
13999;SDS011;7075;53.574;10.054;2022-11-20T00:28:32;41.15;;;38.78;;
13999;SDS011;7075;53.574;10.054;2022-11-20T00:31:08;37.63;;;35.55;;
13999;SDS011;7075;53.574;10.054;2022-11-20T00:33:36;36.85;;;34.85;;
13999;SDS011;7075;53.574;10.054;2022-11-20T00:36:03;40.40;;;38.30;;
13999;SDS011;7075;53.574;10.054;2022-11-20T00:38:30;41.37;;;39.17;;
13999;SDS011;7075;53.574;10.054;2022-11-20T00:40:57;42.80;;;40.50;;
13999;SDS011;7075;53.574;10.054;2022-11-20T00:43:23;45.07;;;42.70;;
13999;SDS011;7075;53.574;10.054;2022-11-20T00:45:50;47.80;;;45.30;;
13999;SDS011;7075;53.574;10.054;2022-11-20T00:48:15;43.65;;;41.45;;
13999;SDS011;7075;53.574;10.054;2022-11-20T00:50:41;44.67;;;42.38;;
13999;SDS011;7075;53.574;10.054;2022-11-20T00:53:07;45.17;;;42.75;;
13999;SDS011;7075;53.574;10.054;2022-11-20T00:55:32;48.60;;;45.97;;
13999;SDS011;7075;53.574;10.054;2022-11-20T00:58:04;43.15;;;40.85;;
13999;SDS011;7075;53.574;10.054;2022-11-20T01:00:30;41.80;;;39.50;;
13999;SDS011;7075;53.574;10.054;2022-11-20T01:02:55;46.10;;;43.55;;
13999;SDS011;7075;53.574;10.054;2022-11-20T01:05:21;41.92;;;39.72;;
13999;SDS011;7075;53.574;10.054;2022-11-20T01:07:46;40.90;;;38.63;;
13999;SDS011;7075;53.574;10.054;2022-11-20T01:10:12;44.30;;;42.00;;
13999;SDS011;7075;53.574;10.054;2022-11-20T01:12:37;43.38;;;41.08;;
13999;SDS011;7075;53.574;10.054;2022-11-20T01:15:03;45.57;;;43.13;;
13999;SDS011;7075;53.574;10.054;2022-11-20T01:17:30;48.42;;;45.70;;
13999;SDS011;7075;53.574;10.054;2022-11-20T01:22:47;50.33;;;47.63;;
13999;SDS011;7075;53.574;10.054;2022-11-20T01:25:12;51.83;;;49.13;;
13999;SDS011;7075;53.574;10.054;2022-11-20T01:27:38;56.63;;;53.63;;
13999;SDS011;7075;53.574;10.054;2022-11-20T01:30:03;58.33;;;55.33;;
13999;SDS011;7075;53.574;10.054;2022-11-20T01:32:29;51.47;;;48.47;;
13999;SDS011;7075;53.574;10.054;2022-11-20T01:34:55;49.07;;;46.57;;
13999;SDS011;7075;53.574;10.054;2022-11-20T01:37:20;49.20;;;46.60;;
13999;SDS011;7075;53.574;10.054;2022-11-20T01:39:46;49.47;;;46.83;;
13999;SDS011;7075;53.574;10.054;2022-11-20T01:42:12;51.20;;;48.23;;
13999;SDS011;7075;53.574;10.054;2022-11-20T01:44:57;46.45;;;43.95;;
13999;SDS011;7075;53.574;10.054;2022-11-20T01:52:38;42.88;;;40.63;;
13999;SDS011;7075;53.574;10.054;2022-11-20T01:55:09;35.88;;;33.97;;
13999;SDS011;7075;53.574;10.054;2022-11-20T01:57:39;36.10;;;34.13;;
13999;SDS011;7075;53.574;10.054;2022-11-20T02:00:07;37.38;;;35.28;;
13999;SDS011;7075;53.574;10.054;2022-11-20T02:02:34;35.90;;;34.00;;
13999;SDS011;7075;53.574;10.054;2022-11-20T02:05:03;36.30;;;34.33;;
13999;SDS011;7075;53.574;10.054;2022-11-20T02:07:36;39.25;;;37.15;;
13999;SDS011;7075;53.574;10.054;2022-11-20T02:10:03;36.20;;;34.30;;
13999;SDS011;7075;53.574;10.054;2022-11-20T02:12:28;33.00;;;31.20;;
13999;SDS011;7075;53.574;10.054;2022-11-20T02:15:12;34.47;;;32.58;;
13999;SDS011;7075;53.574;10.054;2022-11-20T02:17:38;33.40;;;31.52;;
13999;SDS011;7075;53.574;10.054;2022-11-20T02:20:04;31.80;;;30.13;;
13999;SDS011;7075;53.574;10.054;2022-11-20T02:22:32;32.08;;;30.38;;
13999;SDS011;7075;53.574;10.054;2022-11-20T02:25:03;34.08;;;32.20;;
13999;SDS011;7075;53.574;10.054;2022-11-20T02:27:31;28.20;;;26.50;;
13999;SDS011;7075;53.574;10.054;2022-11-20T02:29:58;33.45;;;31.65;;
13999;SDS011;7075;53.574;10.054;2022-11-20T02:32:31;33.28;;;31.48;;
13999;SDS011;7075;53.574;10.054;2022-11-20T02:35:06;33.63;;;31.88;;
13999;SDS011;7075;53.574;10.054;2022-11-20T02:37:33;30.10;;;28.40;;
13999;SDS011;7075;53.574;10.054;2022-11-20T02:40:02;33.08;;;31.38;;
13999;SDS011;7075;53.574;10.054;2022-11-20T02:42:28;33.30;;;31.47;;
13999;SDS011;7075;53.574;10.054;2022-11-20T02:44:53;33.10;;;31.30;;
13999;SDS011;7075;53.574;10.054;2022-11-20T02:47:19;32.07;;;30.40;;
13999;SDS011;7075;53.574;10.054;2022-11-20T02:49:44;36.83;;;34.80;;
13999;SDS011;7075;53.574;10.054;2022-11-20T02:52:10;35.77;;;33.87;;
13999;SDS011;7075;53.574;10.054;2022-11-20T02:54:36;33.23;;;31.43;;
13999;SDS011;7075;53.574;10.054;2022-11-20T02:57:01;32.72;;;30.85;;
13999;SDS011;7075;53.574;10.054;2022-11-20T02:59:27;32.90;;;30.90;;
13999;SDS011;7075;53.574;10.054;2022-11-20T03:01:52;33.85;;;31.98;;
13999;SDS011;7075;53.574;10.054;2022-11-20T03:04:18;34.70;;;32.80;;
13999;SDS011;7075;53.574;10.054;2022-11-20T03:06:43;30.33;;;28.57;;
13999;SDS011;7075;53.574;10.054;2022-11-20T03:09:09;33.92;;;32.22;;
13999;SDS011;7075;53.574;10.054;2022-11-20T03:11:34;36.55;;;34.65;;
13999;SDS011;7075;53.574;10.054;2022-11-20T03:14:04;32.87;;;31.03;;
13999;SDS011;7075;53.574;10.054;2022-11-20T03:16:30;34.97;;;33.08;;
13999;SDS011;7075;53.574;10.054;2022-11-20T03:18:56;37.33;;;35.30;;
13999;SDS011;7075;53.574;10.054;2022-11-20T03:21:22;38.08;;;36.08;;
13999;SDS011;7075;53.574;10.054;2022-11-20T03:23:47;32.53;;;30.63;;
13999;SDS011;7075;53.574;10.054;2022-11-20T03:26:17;34.30;;;32.43;;
13999;SDS011;7075;53.574;10.054;2022-11-20T03:28:54;36.22;;;34.33;;
13999;SDS011;7075;53.574;10.054;2022-11-20T03:31:22;34.55;;;32.53;;
13999;SDS011;7075;53.574;10.054;2022-11-20T03:33:53;33.83;;;31.83;;
13999;SDS011;7075;53.574;10.054;2022-11-20T03:36:20;35.80;;;33.95;;
13999;SDS011;7075;53.574;10.054;2022-11-20T03:38:46;35.43;;;33.53;;
13999;SDS011;7075;53.574;10.054;2022-11-20T03:41:15;35.03;;;33.15;;
13999;SDS011;7075;53.574;10.054;2022-11-20T03:43:46;35.72;;;33.80;;
13999;SDS011;7075;53.574;10.054;2022-11-20T03:46:13;35.10;;;33.15;;
13999;SDS011;7075;53.574;10.054;2022-11-20T03:48:38;37.07;;;35.17;;
13999;SDS011;7075;53.574;10.054;2022-11-20T03:51:11;33.87;;;31.97;;
13999;SDS011;7075;53.574;10.054;2022-11-20T03:53:39;36.17;;;34.30;;
13999;SDS011;7075;53.574;10.054;2022-11-20T03:56:06;37.90;;;35.72;;
13999;SDS011;7075;53.574;10.054;2022-11-20T03:58:33;35.03;;;33.13;;
13999;SDS011;7075;53.574;10.054;2022-11-20T04:01:05;36.25;;;34.35;;
13999;SDS011;7075;53.574;10.054;2022-11-20T04:03:32;35.03;;;33.03;;
13999;SDS011;7075;53.574;10.054;2022-11-20T04:06:02;36.90;;;35.00;;
13999;SDS011;7075;53.574;10.054;2022-11-20T04:08:32;37.45;;;35.35;;
13999;SDS011;7075;53.574;10.054;2022-11-20T04:11:07;35.70;;;33.80;;
13999;SDS011;7075;53.574;10.054;2022-11-20T04:13:50;38.03;;;35.92;;
13999;SDS011;7075;53.574;10.054;2022-11-20T04:16:17;34.88;;;33.05;;
13999;SDS011;7075;53.574;10.054;2022-11-20T04:18:43;36.45;;;34.47;;
13999;SDS011;7075;53.574;10.054;2022-11-20T04:21:09;33.33;;;31.58;;
13999;SDS011;7075;53.574;10.054;2022-11-20T04:23:35;32.72;;;30.95;;
13999;SDS011;7075;53.574;10.054;2022-11-20T04:26:02;31.07;;;29.43;;
13999;SDS011;7075;53.574;10.054;2022-11-20T04:28:32;31.58;;;29.90;;
13999;SDS011;7075;53.574;10.054;2022-11-20T04:31:17;30.50;;;28.80;;
13999;SDS011;7075;53.574;10.054;2022-11-20T04:33:44;28.80;;;27.30;;
13999;SDS011;7075;53.574;10.054;2022-11-20T04:36:11;28.90;;;27.20;;
13999;SDS011;7075;53.574;10.054;2022-11-20T04:38:38;29.35;;;27.85;;
13999;SDS011;7075;53.574;10.054;2022-11-20T04:41:05;30.45;;;28.85;;
13999;SDS011;7075;53.574;10.054;2022-11-20T04:43:32;32.13;;;30.33;;
13999;SDS011;7075;53.574;10.054;2022-11-20T04:45:58;30.45;;;28.77;;
13999;SDS011;7075;53.574;10.054;2022-11-20T04:48:25;29.58;;;27.98;;
13999;SDS011;7075;53.574;10.054;2022-11-20T04:50:52;31.88;;;29.98;;
13999;SDS011;7075;53.574;10.054;2022-11-20T04:53:18;30.23;;;28.55;;
13999;SDS011;7075;53.574;10.054;2022-11-20T04:55:44;29.75;;;28.10;;
13999;SDS011;7075;53.574;10.054;2022-11-20T04:58:10;30.27;;;28.58;;
13999;SDS011;7075;53.574;10.054;2022-11-20T05:00:36;28.92;;;27.23;;
13999;SDS011;7075;53.574;10.054;2022-11-20T05:03:02;26.40;;;24.90;;
13999;SDS011;7075;53.574;10.054;2022-11-20T05:05:27;28.75;;;27.15;;
13999;SDS011;7075;53.574;10.054;2022-11-20T05:07:55;28.73;;;27.10;;
13999;SDS011;7075;53.574;10.054;2022-11-20T05:10:21;30.95;;;29.15;;
13999;SDS011;7075;53.574;10.054;2022-11-20T05:12:47;30.97;;;29.33;;
13999;SDS011;7075;53.574;10.054;2022-11-20T05:15:13;30.45;;;28.83;;
13999;SDS011;7075;53.574;10.054;2022-11-20T05:17:38;30.10;;;28.50;;
13999;SDS011;7075;53.574;10.054;2022-11-20T05:20:04;31.20;;;29.50;;
13999;SDS011;7075;53.574;10.054;2022-11-20T05:22:30;30.67;;;28.98;;
13999;SDS011;7075;53.574;10.054;2022-11-20T05:24:55;29.60;;;27.97;;
13999;SDS011;7075;53.574;10.054;2022-11-20T05:27:21;31.00;;;29.40;;
13999;SDS011;7075;53.574;10.054;2022-11-20T05:29:46;32.75;;;30.92;;
13999;SDS011;7075;53.574;10.054;2022-11-20T05:32:12;29.30;;;27.77;;
13999;SDS011;7075;53.574;10.054;2022-11-20T05:34:37;30.95;;;29.25;;
13999;SDS011;7075;53.574;10.054;2022-11-20T05:37:03;32.80;;;31.00;;
13999;SDS011;7075;53.574;10.054;2022-11-20T05:39:29;28.53;;;26.83;;
13999;SDS011;7075;53.574;10.054;2022-11-20T05:41:54;29.60;;;27.80;;
13999;SDS011;7075;53.574;10.054;2022-11-20T05:44:38;30.83;;;28.98;;
13999;SDS011;7075;53.574;10.054;2022-11-20T05:47:04;31.08;;;29.33;;
13999;SDS011;7075;53.574;10.054;2022-11-20T05:49:30;28.90;;;27.20;;
13999;SDS011;7075;53.574;10.054;2022-11-20T05:51:56;29.10;;;27.43;;
13999;SDS011;7075;53.574;10.054;2022-11-20T05:54:21;31.83;;;30.10;;
13999;SDS011;7075;53.574;10.054;2022-11-20T05:56:47;30.60;;;28.90;;
13999;SDS011;7075;53.574;10.054;2022-11-20T05:59:12;27.73;;;26.30;;
13999;SDS011;7075;53.574;10.054;2022-11-20T06:01:38;30.70;;;29.10;;
13999;SDS011;7075;53.574;10.054;2022-11-20T06:04:03;29.33;;;27.80;;
13999;SDS011;7075;53.574;10.054;2022-11-20T06:06:29;31.73;;;29.92;;
13999;SDS011;7075;53.574;10.054;2022-11-20T06:08:54;31.97;;;30.17;;
13999;SDS011;7075;53.574;10.054;2022-11-20T06:11:20;30.83;;;29.20;;
13999;SDS011;7075;53.574;10.054;2022-11-20T06:13:46;31.52;;;29.83;;
13999;SDS011;7075;53.574;10.054;2022-11-20T06:16:14;32.38;;;30.60;;
13999;SDS011;7075;53.574;10.054;2022-11-20T06:18:42;31.57;;;29.63;;
13999;SDS011;7075;53.574;10.054;2022-11-20T06:21:08;30.17;;;28.27;;
13999;SDS011;7075;53.574;10.054;2022-11-20T06:23:35;32.67;;;30.70;;
13999;SDS011;7075;53.574;10.054;2022-11-20T06:26:11;31.10;;;29.20;;
13999;SDS011;7075;53.574;10.054;2022-11-20T06:28:39;32.50;;;30.50;;
13999;SDS011;7075;53.574;10.054;2022-11-20T06:31:05;33.20;;;31.00;;
13999;SDS011;7075;53.574;10.054;2022-11-20T06:33:31;34.97;;;32.78;;
13999;SDS011;7075;53.574;10.054;2022-11-20T06:35:57;31.63;;;29.73;;
13999;SDS011;7075;53.574;10.054;2022-11-20T06:38:24;31.75;;;29.75;;
13999;SDS011;7075;53.574;10.054;2022-11-20T06:40:51;33.17;;;30.67;;
13999;SDS011;7075;53.574;10.054;2022-11-20T06:43:17;32.83;;;30.63;;
13999;SDS011;7075;53.574;10.054;2022-11-20T06:45:42;33.00;;;30.97;;
13999;SDS011;7075;53.574;10.054;2022-11-20T06:48:08;32.73;;;30.63;;
13999;SDS011;7075;53.574;10.054;2022-11-20T06:50:34;32.30;;;30.15;;
13999;SDS011;7075;53.574;10.054;2022-11-20T06:53:02;32.55;;;30.45;;
13999;SDS011;7075;53.574;10.054;2022-11-20T06:55:28;31.60;;;29.63;;
13999;SDS011;7075;53.574;10.054;2022-11-20T06:57:54;31.77;;;29.90;;
13999;SDS011;7075;53.574;10.054;2022-11-20T07:00:20;32.43;;;30.43;;
13999;SDS011;7075;53.574;10.054;2022-11-20T07:02:46;33.53;;;31.50;;
13999;SDS011;7075;53.574;10.054;2022-11-20T07:05:11;30.67;;;28.67;;
13999;SDS011;7075;53.574;10.054;2022-11-20T07:07:37;32.20;;;30.40;;
13999;SDS011;7075;53.574;10.054;2022-11-20T07:10:02;36.33;;;34.23;;
13999;SDS011;7075;53.574;10.054;2022-11-20T07:12:29;32.22;;;30.35;;
13999;SDS011;7075;53.574;10.054;2022-11-20T07:14:54;30.65;;;28.85;;
13999;SDS011;7075;53.574;10.054;2022-11-20T07:17:20;32.23;;;30.20;;
13999;SDS011;7075;53.574;10.054;2022-11-20T07:19:45;30.97;;;29.07;;
13999;SDS011;7075;53.574;10.054;2022-11-20T07:22:11;31.47;;;29.67;;
13999;SDS011;7075;53.574;10.054;2022-11-20T07:24:37;30.90;;;29.20;;
13999;SDS011;7075;53.574;10.054;2022-11-20T07:27:02;27.58;;;25.73;;
13999;SDS011;7075;53.574;10.054;2022-11-20T07:29:28;31.60;;;29.85;;
13999;SDS011;7075;53.574;10.054;2022-11-20T07:31:54;30.30;;;28.53;;
13999;SDS011;7075;53.574;10.054;2022-11-20T07:34:21;27.67;;;26.17;;
13999;SDS011;7075;53.574;10.054;2022-11-20T07:36:46;29.65;;;28.05;;
13999;SDS011;7075;53.574;10.054;2022-11-20T07:39:12;29.47;;;27.87;;
13999;SDS011;7075;53.574;10.054;2022-11-20T07:41:37;28.53;;;26.87;;
13999;SDS011;7075;53.574;10.054;2022-11-20T07:44:03;29.48;;;27.88;;
13999;SDS011;7075;53.574;10.054;2022-11-20T07:46:29;27.70;;;26.10;;
13999;SDS011;7075;53.574;10.054;2022-11-20T07:48:54;28.23;;;26.63;;
13999;SDS011;7075;53.574;10.054;2022-11-20T07:51:20;27.30;;;25.70;;
13999;SDS011;7075;53.574;10.054;2022-11-20T07:53:46;28.80;;;27.10;;
13999;SDS011;7075;53.574;10.054;2022-11-20T07:56:11;26.90;;;25.50;;
13999;SDS011;7075;53.574;10.054;2022-11-20T07:58:38;28.92;;;27.33;;
13999;SDS011;7075;53.574;10.054;2022-11-20T08:01:07;30.48;;;28.77;;
13999;SDS011;7075;53.574;10.054;2022-11-20T08:03:33;26.83;;;25.33;;
13999;SDS011;7075;53.574;10.054;2022-11-20T08:05:59;30.15;;;28.35;;
13999;SDS011;7075;53.574;10.054;2022-11-20T08:08:26;29.87;;;28.20;;
13999;SDS011;7075;53.574;10.054;2022-11-20T08:10:52;27.10;;;25.55;;
13999;SDS011;7075;53.574;10.054;2022-11-20T08:13:38;29.33;;;27.73;;
13999;SDS011;7075;53.574;10.054;2022-11-20T08:16:22;31.43;;;29.63;;
13999;SDS011;7075;53.574;10.054;2022-11-20T08:18:47;31.87;;;30.03;;
13999;SDS011;7075;53.574;10.054;2022-11-20T08:21:13;29.17;;;27.53;;
13999;SDS011;7075;53.574;10.054;2022-11-20T08:23:38;29.42;;;27.73;;
13999;SDS011;7075;53.574;10.054;2022-11-20T08:26:04;29.53;;;27.93;;
13999;SDS011;7075;53.574;10.054;2022-11-20T08:28:30;28.10;;;26.60;;
13999;SDS011;7075;53.574;10.054;2022-11-20T08:30:59;30.38;;;28.67;;
13999;SDS011;7075;53.574;10.054;2022-11-20T08:33:26;31.25;;;29.52;;
13999;SDS011;7075;53.574;10.054;2022-11-20T08:35:52;27.95;;;26.45;;
13999;SDS011;7075;53.574;10.054;2022-11-20T08:38:17;28.60;;;27.10;;
13999;SDS011;7075;53.574;10.054;2022-11-20T08:40:43;29.30;;;27.77;;
13999;SDS011;7075;53.574;10.054;2022-11-20T08:43:31;27.77;;;26.17;;
13999;SDS011;7075;53.574;10.054;2022-11-20T08:45:57;26.90;;;25.50;;
13999;SDS011;7075;53.574;10.054;2022-11-20T08:48:22;27.23;;;25.83;;
13999;SDS011;7075;53.574;10.054;2022-11-20T08:50:48;29.20;;;27.67;;
13999;SDS011;7075;53.574;10.054;2022-11-20T08:53:13;30.43;;;28.93;;
13999;SDS011;7075;53.574;10.054;2022-11-20T08:55:39;29.23;;;27.73;;
13999;SDS011;7075;53.574;10.054;2022-11-20T08:58:05;29.43;;;27.93;;
13999;SDS011;7075;53.574;10.054;2022-11-20T09:00:32;28.37;;;26.90;;
13999;SDS011;7075;53.574;10.054;2022-11-20T09:02:58;30.15;;;28.55;;
13999;SDS011;7075;53.574;10.054;2022-11-20T09:05:26;32.08;;;30.40;;
13999;SDS011;7075;53.574;10.054;2022-11-20T09:07:55;31.90;;;30.20;;
13999;SDS011;7075;53.574;10.054;2022-11-20T09:10:21;31.63;;;30.02;;
13999;SDS011;7075;53.574;10.054;2022-11-20T09:12:50;29.87;;;28.37;;
13999;SDS011;7075;53.574;10.054;2022-11-20T09:15:16;29.52;;;28.02;;
13999;SDS011;7075;53.574;10.054;2022-11-20T09:17:49;31.73;;;30.13;;
13999;SDS011;7075;53.574;10.054;2022-11-20T09:20:16;31.00;;;29.40;;
13999;SDS011;7075;53.574;10.054;2022-11-20T09:22:42;30.88;;;29.27;;
13999;SDS011;7075;53.574;10.054;2022-11-20T09:25:07;33.37;;;31.67;;
13999;SDS011;7075;53.574;10.054;2022-11-20T09:27:33;35.20;;;33.50;;
13999;SDS011;7075;53.574;10.054;2022-11-20T09:30:00;34.17;;;32.40;;
13999;SDS011;7075;53.574;10.054;2022-11-20T09:32:26;30.23;;;28.73;;
13999;SDS011;7075;53.574;10.054;2022-11-20T09:34:52;33.05;;;31.35;;
13999;SDS011;7075;53.574;10.054;2022-11-20T09:37:17;30.63;;;28.93;;
13999;SDS011;7075;53.574;10.054;2022-11-20T09:39:43;31.40;;;29.77;;
13999;SDS011;7075;53.574;10.054;2022-11-20T09:45:15;30.13;;;28.63;;
13999;SDS011;7075;53.574;10.054;2022-11-20T09:47:59;29.38;;;27.88;;
13999;SDS011;7075;53.574;10.054;2022-11-20T09:50:45;32.45;;;30.67;;
13999;SDS011;7075;53.574;10.054;2022-11-20T09:53:24;33.97;;;32.25;;
13999;SDS011;7075;53.574;10.054;2022-11-20T09:56:00;32.07;;;30.37;;
13999;SDS011;7075;53.574;10.054;2022-11-20T09:58:33;32.10;;;30.30;;
13999;SDS011;7075;53.574;10.054;2022-11-20T10:01:03;34.00;;;32.20;;
13999;SDS011;7075;53.574;10.054;2022-11-20T10:03:54;35.40;;;33.60;;
13999;SDS011;7075;53.574;10.054;2022-11-20T10:06:28;33.67;;;31.90;;
13999;SDS011;7075;53.574;10.054;2022-11-20T10:08:58;31.58;;;29.98;;
13999;SDS011;7075;53.574;10.054;2022-11-20T10:22:49;28.88;;;27.33;;
13999;SDS011;7075;53.574;10.054;2022-11-20T10:25:30;26.42;;;25.13;;
13999;SDS011;7075;53.574;10.054;2022-11-20T10:30:42;35.85;;;33.95;;
13999;SDS011;7075;53.574;10.054;2022-11-20T10:33:16;33.42;;;31.63;;
13999;SDS011;7075;53.574;10.054;2022-11-20T10:35:49;33.17;;;31.37;;
13999;SDS011;7075;53.574;10.054;2022-11-20T10:38:39;31.15;;;29.52;;
13999;SDS011;7075;53.574;10.054;2022-11-20T10:41:22;31.30;;;29.63;;
13999;SDS011;7075;53.574;10.054;2022-11-20T10:43:52;30.13;;;28.63;;
13999;SDS011;7075;53.574;10.054;2022-11-20T10:46:22;27.00;;;25.60;;
13999;SDS011;7075;53.574;10.054;2022-11-20T10:48:48;24.88;;;23.58;;
13999;SDS011;7075;53.574;10.054;2022-11-20T10:56:53;26.15;;;24.75;;
13999;SDS011;7075;53.574;10.054;2022-11-20T11:01:55;32.88;;;31.17;;
13999;SDS011;7075;53.574;10.054;2022-11-20T11:07:01;33.67;;;31.98;;
13999;SDS011;7075;53.574;10.054;2022-11-20T11:09:52;33.25;;;31.58;;
13999;SDS011;7075;53.574;10.054;2022-11-20T11:12:19;32.45;;;30.85;;
13999;SDS011;7075;53.574;10.054;2022-11-20T11:14:56;35.15;;;33.40;;
13999;SDS011;7075;53.574;10.054;2022-11-20T11:22:24;34.70;;;33.00;;
13999;SDS011;7075;53.574;10.054;2022-11-20T11:24:53;39.17;;;37.17;;
13999;SDS011;7075;53.574;10.054;2022-11-20T11:27:19;34.90;;;33.10;;
13999;SDS011;7075;53.574;10.054;2022-11-20T11:29:45;37.85;;;35.95;;
13999;SDS011;7075;53.574;10.054;2022-11-20T11:32:12;36.25;;;34.38;;
13999;SDS011;7075;53.574;10.054;2022-11-20T11:34:39;40.40;;;38.40;;
13999;SDS011;7075;53.574;10.054;2022-11-20T11:37:05;36.50;;;34.60;;
13999;SDS011;7075;53.574;10.054;2022-11-20T11:39:43;35.78;;;33.97;;
13999;SDS011;7075;53.574;10.054;2022-11-20T11:42:12;38.38;;;36.47;;
13999;SDS011;7075;53.574;10.054;2022-11-20T11:44:43;36.47;;;34.65;;
13999;SDS011;7075;53.574;10.054;2022-11-20T11:47:30;35.65;;;33.85;;
13999;SDS011;7075;53.574;10.054;2022-11-20T11:52:51;40.65;;;38.63;;
13999;SDS011;7075;53.574;10.054;2022-11-20T12:06:35;38.80;;;36.90;;
13999;SDS011;7075;53.574;10.054;2022-11-20T12:09:04;38.00;;;36.10;;
13999;SDS011;7075;53.574;10.054;2022-11-20T12:14:30;38.65;;;36.72;;
13999;SDS011;7075;53.574;10.054;2022-11-20T12:17:04;43.72;;;41.53;;
13999;SDS011;7075;53.574;10.054;2022-11-20T12:19:30;38.63;;;36.72;;
13999;SDS011;7075;53.574;10.054;2022-11-20T12:25:04;44.85;;;42.65;;
13999;SDS011;7075;53.574;10.054;2022-11-20T12:30:11;42.92;;;40.80;;
13999;SDS011;7075;53.574;10.054;2022-11-20T12:41:00;38.88;;;36.97;;
13999;SDS011;7075;53.574;10.054;2022-11-20T12:43:30;42.75;;;40.58;;
13999;SDS011;7075;53.574;10.054;2022-11-20T13:08:19;43.95;;;41.80;;
13999;SDS011;7075;53.574;10.054;2022-11-20T13:10:50;43.33;;;41.23;;
13999;SDS011;7075;53.574;10.054;2022-11-20T13:18:41;47.17;;;44.87;;
13999;SDS011;7075;53.574;10.054;2022-11-20T13:26:44;46.72;;;44.42;;
13999;SDS011;7075;53.574;10.054;2022-11-20T13:29:18;49.33;;;46.83;;
13999;SDS011;7075;53.574;10.054;2022-11-20T13:31:45;48.17;;;45.80;;
13999;SDS011;7075;53.574;10.054;2022-11-20T13:34:13;47.58;;;45.05;;
13999;SDS011;7075;53.574;10.054;2022-11-20T13:36:51;48.22;;;45.83;;
13999;SDS011;7075;53.574;10.054;2022-11-20T13:39:35;50.42;;;47.92;;
13999;SDS011;7075;53.574;10.054;2022-11-20T13:44:39;41.22;;;39.22;;
13999;SDS011;7075;53.574;10.054;2022-11-20T13:47:22;38.60;;;36.70;;
13999;SDS011;7075;53.574;10.054;2022-11-20T13:49:50;43.00;;;40.90;;
13999;SDS011;7075;53.574;10.054;2022-11-20T13:52:39;39.00;;;37.10;;
13999;SDS011;7075;53.574;10.054;2022-11-20T13:55:29;45.85;;;43.55;;
13999;SDS011;7075;53.574;10.054;2022-11-20T14:01:19;36.90;;;35.10;;
13999;SDS011;7075;53.574;10.054;2022-11-20T14:03:48;39.15;;;37.17;;
13999;SDS011;7075;53.574;10.054;2022-11-20T14:06:25;39.43;;;37.53;;
13999;SDS011;7075;53.574;10.054;2022-11-20T14:08:56;39.15;;;37.25;;
13999;SDS011;7075;53.574;10.054;2022-11-20T14:11:29;36.92;;;35.05;;
13999;SDS011;7075;53.574;10.054;2022-11-20T14:13:57;35.70;;;33.90;;
13999;SDS011;7075;53.574;10.054;2022-11-20T14:16:38;36.95;;;35.00;;
13999;SDS011;7075;53.574;10.054;2022-11-20T14:21:45;36.65;;;34.80;;
13999;SDS011;7075;53.574;10.054;2022-11-20T14:24:23;36.70;;;34.90;;
13999;SDS011;7075;53.574;10.054;2022-11-20T14:26:50;37.78;;;35.78;;
13999;SDS011;7075;53.574;10.054;2022-11-20T14:29:17;38.77;;;36.80;;
13999;SDS011;7075;53.574;10.054;2022-11-20T14:31:46;37.17;;;35.35;;
13999;SDS011;7075;53.574;10.054;2022-11-20T14:34:16;36.33;;;34.42;;
13999;SDS011;7075;53.574;10.054;2022-11-20T14:36:48;35.90;;;34.10;;
13999;SDS011;7075;53.574;10.054;2022-11-20T14:39:22;32.38;;;30.58;;
13999;SDS011;7075;53.574;10.054;2022-11-20T14:41:54;34.13;;;32.35;;
13999;SDS011;7075;53.574;10.054;2022-11-20T14:44:40;32.10;;;30.40;;
13999;SDS011;7075;53.574;10.054;2022-11-20T14:47:05;31.05;;;29.52;;
13999;SDS011;7075;53.574;10.054;2022-11-20T14:49:31;35.28;;;33.47;;
13999;SDS011;7075;53.574;10.054;2022-11-20T14:52:01;34.45;;;32.65;;
13999;SDS011;7075;53.574;10.054;2022-11-20T14:54:43;31.67;;;30.08;;
13999;SDS011;7075;53.574;10.054;2022-11-20T14:57:30;34.33;;;32.60;;
13999;SDS011;7075;53.574;10.054;2022-11-20T15:00:31;32.33;;;30.67;;
13999;SDS011;7075;53.574;10.054;2022-11-20T15:02:50;32.78;;;31.13;;
13999;SDS011;7075;53.574;10.054;2022-11-20T15:05:17;33.45;;;31.65;;
13999;SDS011;7075;53.574;10.054;2022-11-20T15:08:03;32.50;;;30.90;;
13999;SDS011;7075;53.574;10.054;2022-11-20T15:10:31;34.33;;;32.53;;
13999;SDS011;7075;53.574;10.054;2022-11-20T15:13:05;31.90;;;30.20;;
13999;SDS011;7075;53.574;10.054;2022-11-20T15:15:39;32.25;;;30.55;;
13999;SDS011;7075;53.574;10.054;2022-11-20T15:18:13;34.78;;;33.00;;
13999;SDS011;7075;53.574;10.054;2022-11-20T15:20:41;30.90;;;29.35;;
13999;SDS011;7075;53.574;10.054;2022-11-20T15:23:11;31.20;;;29.70;;
13999;SDS011;7075;53.574;10.054;2022-11-20T15:25:38;32.07;;;30.47;;
13999;SDS011;7075;53.574;10.054;2022-11-20T15:28:07;34.60;;;32.85;;
13999;SDS011;7075;53.574;10.054;2022-11-20T15:30:43;31.45;;;29.85;;
13999;SDS011;7075;53.574;10.054;2022-11-20T15:33:09;34.60;;;32.90;;
13999;SDS011;7075;53.574;10.054;2022-11-20T15:35:35;32.00;;;30.42;;
13999;SDS011;7075;53.574;10.054;2022-11-20T15:38:01;33.93;;;32.20;;
13999;SDS011;7075;53.574;10.054;2022-11-20T15:40:26;32.17;;;30.47;;
13999;SDS011;7075;53.574;10.054;2022-11-20T15:42:52;33.23;;;31.57;;
13999;SDS011;7075;53.574;10.054;2022-11-20T15:45:32;29.98;;;28.58;;
13999;SDS011;7075;53.574;10.054;2022-11-20T15:48:03;31.10;;;29.60;;
13999;SDS011;7075;53.574;10.054;2022-11-20T15:50:37;33.97;;;32.28;;
13999;SDS011;7075;53.574;10.054;2022-11-20T15:53:07;32.67;;;31.02;;
13999;SDS011;7075;53.574;10.054;2022-11-20T15:55:34;31.75;;;30.23;;
13999;SDS011;7075;53.574;10.054;2022-11-20T15:58:00;31.17;;;29.63;;
13999;SDS011;7075;53.574;10.054;2022-11-20T16:00:26;32.80;;;31.20;;
13999;SDS011;7075;53.574;10.054;2022-11-20T16:02:51;31.50;;;29.80;;
13999;SDS011;7075;53.574;10.054;2022-11-20T16:05:17;31.20;;;29.52;;
13999;SDS011;7075;53.574;10.054;2022-11-20T16:07:43;31.40;;;29.70;;
13999;SDS011;7075;53.574;10.054;2022-11-20T16:10:08;30.02;;;28.42;;
13999;SDS011;7075;53.574;10.054;2022-11-20T16:12:34;34.03;;;32.13;;
13999;SDS011;7075;53.574;10.054;2022-11-20T16:15:18;31.10;;;29.55;;
13999;SDS011;7075;53.574;10.054;2022-11-20T16:18:02;26.52;;;25.13;;
13999;SDS011;7075;53.574;10.054;2022-11-20T16:20:28;26.38;;;24.98;;
13999;SDS011;7075;53.574;10.054;2022-11-20T16:22:54;28.73;;;27.23;;
13999;SDS011;7075;53.574;10.054;2022-11-20T16:25:19;30.00;;;28.40;;